createdAt,value
2022-10-17T00:00:38.496Z,4.03
2022-10-17T00:03:06.061Z,4.10
2022-10-17T00:05:33.600Z,6.40
2022-10-17T00:08:01.692Z,4.00
2022-10-17T00:10:29.266Z,3.80
2022-10-17T00:12:56.828Z,3.77
2022-10-17T00:15:24.636Z,3.53
2022-10-17T00:17:53.572Z,3.77
2022-10-17T00:20:21.114Z,5.87
2022-10-17T00:22:48.661Z,3.27
2022-10-17T00:25:16.280Z,3.50
2022-10-17T00:27:44.013Z,3.63
2022-10-17T00:30:12.649Z,2.77
2022-10-17T00:32:40.520Z,3.87
2022-10-17T00:35:09.950Z,2.63
2022-10-17T00:37:37.497Z,3.77
2022-10-17T00:40:05.463Z,3.10
2022-10-17T00:42:33.057Z,3.10
2022-10-17T00:45:07.067Z,3.20
2022-10-17T00:47:35.226Z,3.23
2022-10-17T00:50:03.479Z,5.13
2022-10-17T00:52:33.112Z,4.27
2022-10-17T00:55:02.057Z,3.60
2022-10-17T00:57:30.900Z,3.60
2022-10-17T00:59:59.116Z,3.50
2022-10-17T01:02:27.354Z,3.77
2022-10-17T01:04:56.056Z,3.97
2022-10-17T01:07:23.858Z,3.43
2022-10-17T01:09:52.850Z,3.47
2022-10-17T01:12:23.026Z,3.40
2022-10-17T01:14:59.461Z,3.20
2022-10-17T01:17:30.972Z,3.23
2022-10-17T01:20:10.001Z,2.90
2022-10-17T01:22:41.606Z,3.10
2022-10-17T01:25:19.927Z,4.63
2022-10-17T01:27:53.023Z,4.00
2022-10-17T01:30:50.832Z,6.10
2022-10-17T01:33:23.286Z,3.43
2022-10-17T01:35:54.433Z,3.30
2022-10-17T01:38:24.453Z,3.37
2022-10-17T01:40:53.544Z,3.63
2022-10-17T01:43:24.493Z,3.47
2022-10-17T01:45:54.313Z,3.33
2022-10-17T01:48:24.284Z,3.37
2022-10-17T01:50:53.488Z,3.17
2022-10-17T01:53:23.315Z,3.17
2022-10-17T01:55:53.565Z,3.30
2022-10-17T01:58:24.943Z,2.90
2022-10-17T02:00:53.049Z,2.93
2022-10-17T02:03:24.197Z,2.87
2022-10-17T02:05:51.852Z,4.20
2022-10-17T02:08:26.259Z,6.17
2022-10-17T02:10:57.024Z,2.93
2022-10-17T02:13:28.320Z,3.00
2022-10-17T02:16:09.802Z,3.70
2022-10-17T02:18:48.163Z,6.10
2022-10-17T02:21:19.921Z,4.30
2022-10-17T02:23:52.636Z,4.57
2022-10-17T02:26:22.436Z,3.20
2022-10-17T02:28:56.036Z,2.90
2022-10-17T02:31:26.405Z,3.03
2022-10-17T02:33:57.552Z,2.80
2022-10-17T02:36:27.013Z,3.00
2022-10-17T02:38:55.894Z,3.03
2022-10-17T02:41:24.207Z,3.07
2022-10-17T02:43:55.642Z,3.37
2022-10-17T02:46:28.041Z,3.00
2022-10-17T02:49:00.539Z,2.87
2022-10-17T02:51:30.426Z,3.17
2022-10-17T02:54:02.260Z,4.10
2022-10-17T02:56:32.037Z,3.03
2022-10-17T02:59:01.978Z,2.50
2022-10-17T03:01:31.477Z,3.47
2022-10-17T03:04:07.244Z,3.20
2022-10-17T03:06:34.845Z,3.17
2022-10-17T03:09:02.703Z,4.50
2022-10-17T03:11:30.413Z,3.20
2022-10-17T03:13:57.973Z,3.10
2022-10-17T03:16:25.633Z,2.93
2022-10-17T03:18:53.208Z,2.83
2022-10-17T03:21:22.133Z,2.93
2022-10-17T03:23:49.775Z,3.30
2022-10-17T03:26:19.537Z,4.00
2022-10-17T03:28:50.633Z,3.13
2022-10-17T03:31:21.128Z,3.07
2022-10-17T03:33:49.162Z,2.87
2022-10-17T03:36:17.624Z,6.07
2022-10-17T03:38:48.004Z,5.93
2022-10-17T03:41:17.253Z,2.87
2022-10-17T03:43:44.883Z,3.03
2022-10-17T03:46:13.034Z,3.20
2022-10-17T03:48:40.641Z,3.27
2022-10-17T03:51:09.501Z,2.80
2022-10-17T03:53:52.725Z,2.90
2022-10-17T03:56:21.103Z,3.00
2022-10-17T03:58:57.091Z,2.97
2022-10-17T04:01:24.769Z,2.80
2022-10-17T04:03:53.172Z,3.13
2022-10-17T04:06:21.375Z,3.07
2022-10-17T04:08:49.492Z,2.83
2022-10-17T04:11:24.383Z,3.40
2022-10-17T04:13:54.844Z,3.10
2022-10-17T04:16:22.810Z,3.23
2022-10-17T04:19:00.997Z,3.20
2022-10-17T04:21:32.741Z,3.23
2022-10-17T04:24:05.651Z,3.20
2022-10-17T04:26:57.640Z,3.20
2022-10-17T04:29:29.061Z,3.20
2022-10-17T04:32:06.435Z,3.43
2022-10-17T04:34:40.601Z,3.37
2022-10-17T04:37:08.183Z,3.67
2022-10-17T04:39:36.613Z,3.00
2022-10-17T04:42:05.576Z,3.00
2022-10-17T04:44:35.345Z,3.93
2022-10-17T04:47:03.166Z,3.17
2022-10-17T04:49:30.810Z,3.40
2022-10-17T04:52:07.164Z,3.63
2022-10-17T04:54:43.878Z,4.87
2022-10-17T04:57:15.351Z,3.40
2022-10-17T04:59:50.032Z,5.67
2022-10-17T05:02:37.844Z,3.77
2022-10-17T05:05:06.090Z,4.90
2022-10-17T05:07:33.684Z,4.93
2022-10-17T05:10:09.936Z,3.87
2022-10-17T05:12:38.910Z,3.90
2022-10-17T05:15:07.350Z,3.13
2022-10-17T05:17:35.497Z,3.83
2022-10-17T05:20:03.068Z,3.47
2022-10-17T05:22:32.451Z,3.73
2022-10-17T05:25:00.768Z,4.97
2022-10-17T05:27:28.425Z,4.17
2022-10-17T05:29:57.672Z,4.20
2022-10-17T05:32:29.156Z,4.00
2022-10-17T05:34:56.919Z,3.63
2022-10-17T05:37:26.103Z,3.70
2022-10-17T05:39:56.412Z,4.67
2022-10-17T05:42:24.789Z,4.27
2022-10-17T05:44:52.432Z,4.50
2022-10-17T05:47:21.968Z,5.27
2022-10-17T05:49:52.460Z,5.63
2022-10-17T05:52:26.686Z,5.57
2022-10-17T05:55:06.813Z,4.93
2022-10-17T05:57:34.468Z,5.90
2022-10-17T06:00:03.645Z,4.40
2022-10-17T06:02:43.136Z,4.53
2022-10-17T06:05:13.542Z,4.00
2022-10-17T06:07:41.465Z,4.20
2022-10-17T06:10:10.051Z,4.40
2022-10-17T06:12:38.129Z,4.30
2022-10-17T06:15:06.215Z,4.20
2022-10-17T06:17:35.253Z,4.57
2022-10-17T06:20:04.424Z,5.43
2022-10-17T06:22:32.386Z,8.10
2022-10-17T06:25:03.269Z,6.10
2022-10-17T06:27:30.856Z,5.50
2022-10-17T06:29:58.433Z,5.57
2022-10-17T06:32:26.037Z,5.10
2022-10-17T06:34:53.662Z,4.70
2022-10-17T06:37:22.624Z,4.87
2022-10-17T06:39:50.319Z,4.77
2022-10-17T06:42:21.662Z,5.23
2022-10-17T06:45:08.908Z,4.33
2022-10-17T06:47:46.240Z,4.03
2022-10-17T06:50:27.678Z,4.20
2022-10-17T06:53:29.740Z,4.83
2022-10-17T06:56:11.901Z,6.83
2022-10-17T06:58:59.464Z,8.10
2022-10-17T07:01:32.178Z,14.20
2022-10-17T07:04:02.250Z,25.40
2022-10-17T07:06:31.019Z,14.00
2022-10-17T07:09:06.704Z,16.97
2022-10-17T07:11:36.545Z,25.30
2022-10-17T07:14:04.144Z,25.83
2022-10-17T07:16:31.763Z,12.40
2022-10-17T07:19:05.977Z,32.53
2022-10-17T07:21:39.138Z,14.50
2022-10-17T07:24:09.904Z,13.93
2022-10-17T07:26:38.758Z,11.73
2022-10-17T07:29:07.477Z,10.10
2022-10-17T07:31:39.465Z,9.50
2022-10-17T07:34:07.118Z,9.43
2022-10-17T07:36:34.708Z,8.17
2022-10-17T07:39:04.946Z,9.30
2022-10-17T07:41:34.984Z,7.37
2022-10-17T07:44:02.548Z,11.40
2022-10-17T07:46:35.181Z,14.17
2022-10-17T07:49:02.801Z,13.77
2022-10-17T07:51:30.425Z,12.10
2022-10-17T07:53:57.964Z,15.37
2022-10-17T07:56:25.648Z,15.33
2022-10-17T07:58:54.772Z,15.73
2022-10-17T08:01:22.372Z,15.97
2022-10-17T08:03:49.949Z,17.00
2022-10-17T08:06:17.665Z,19.50
2022-10-17T08:08:45.360Z,15.97
2022-10-17T08:11:13.753Z,17.97
2022-10-17T08:13:41.725Z,15.83
2022-10-17T08:16:11.837Z,22.43
2022-10-17T08:18:40.494Z,17.70
2022-10-17T08:21:08.360Z,19.73
2022-10-17T08:23:36.201Z,21.73
2022-10-17T08:26:05.098Z,21.17
2022-10-17T08:28:32.735Z,19.77
2022-10-17T08:31:04.195Z,21.57
2022-10-17T08:33:33.466Z,23.30
2022-10-17T08:36:01.388Z,25.00
2022-10-17T08:38:33.257Z,25.47
2022-10-17T08:41:17.836Z,23.03
2022-10-17T08:43:57.316Z,25.10
2022-10-17T08:46:29.896Z,24.17
2022-10-17T08:49:00.216Z,21.23
2022-10-17T08:51:29.272Z,18.27
2022-10-17T08:54:00.499Z,19.37
2022-10-17T08:56:44.448Z,18.83
2022-10-17T08:59:18.748Z,21.57
2022-10-17T09:01:49.457Z,18.13
2022-10-17T09:04:27.135Z,17.87
2022-10-17T09:06:58.376Z,17.73
2022-10-17T09:09:34.041Z,15.17
2022-10-17T09:12:06.272Z,16.00
2022-10-17T09:14:40.128Z,14.63
2022-10-17T09:17:14.029Z,11.93
2022-10-17T09:19:45.788Z,13.30
2022-10-17T09:22:16.318Z,11.00
2022-10-17T09:24:45.232Z,12.37
2022-10-17T09:27:20.022Z,11.07
2022-10-17T09:29:49.780Z,12.63
2022-10-17T09:32:19.289Z,9.53
2022-10-17T09:34:48.221Z,9.63
2022-10-17T09:37:16.920Z,9.80
2022-10-17T09:39:45.701Z,9.20
2022-10-17T09:42:15.396Z,9.30
2022-10-17T09:44:48.667Z,7.63
2022-10-17T09:47:29.411Z,8.30
2022-10-17T09:49:58.334Z,8.23
2022-10-17T09:52:29.589Z,7.23
2022-10-17T09:54:59.927Z,8.53
2022-10-17T09:57:27.554Z,6.60
2022-10-17T09:59:59.280Z,8.03
2022-10-17T10:02:28.397Z,6.93
2022-10-17T10:05:05.029Z,7.97
2022-10-17T10:07:34.784Z,6.17
2022-10-17T10:10:03.721Z,6.30
2022-10-17T10:12:32.381Z,5.57
2022-10-17T10:15:00.174Z,6.50
2022-10-17T10:17:30.193Z,6.17
2022-10-17T10:19:57.781Z,6.30
2022-10-17T10:22:27.118Z,7.70
2022-10-17T10:25:14.308Z,6.07
2022-10-17T10:27:42.627Z,6.10
2022-10-17T10:30:17.861Z,7.00
2022-10-17T10:32:46.581Z,9.80
2022-10-17T10:35:20.740Z,7.80
2022-10-17T10:37:51.768Z,7.33
2022-10-17T10:40:21.104Z,8.27
2022-10-17T10:42:50.149Z,8.20
2022-10-17T10:45:35.955Z,5.97
2022-10-17T10:48:20.458Z,6.17
2022-10-17T10:50:50.445Z,6.17
2022-10-17T10:53:27.008Z,5.47
2022-10-17T10:55:56.398Z,5.47
2022-10-17T10:58:36.826Z,5.10
2022-10-17T11:01:07.970Z,6.07
2022-10-17T11:03:37.095Z,5.50
2022-10-17T11:06:07.127Z,6.73
2022-10-17T11:08:37.708Z,7.77
2022-10-17T11:11:09.190Z,4.70
2022-10-17T11:13:40.578Z,5.07
2022-10-17T11:16:13.618Z,5.90
2022-10-17T11:18:44.045Z,4.67
2022-10-17T11:21:14.121Z,4.53
2022-10-17T11:23:45.353Z,4.70
2022-10-17T11:26:15.678Z,4.77
2022-10-17T11:28:43.274Z,4.50
2022-10-17T11:31:13.696Z,4.00
2022-10-17T11:33:45.227Z,5.83
2022-10-17T11:36:13.488Z,4.10
2022-10-17T11:38:46.806Z,4.27
2022-10-17T11:41:17.234Z,4.50
2022-10-17T11:43:49.384Z,5.07
2022-10-17T11:46:20.045Z,5.00
2022-10-17T11:48:55.301Z,6.83
2022-10-17T11:54:15.119Z,5.30
2022-10-17T11:56:45.984Z,9.37
2022-10-17T11:59:22.964Z,5.83
2022-10-17T12:01:53.537Z,5.77
2022-10-17T12:04:27.371Z,5.27
2022-10-17T12:07:00.112Z,8.17
2022-10-17T12:09:33.356Z,6.20
2022-10-17T12:12:02.416Z,8.23
2022-10-17T12:14:37.366Z,5.93
2022-10-17T12:17:05.427Z,5.17
2022-10-17T12:19:34.452Z,9.43
2022-10-17T12:22:19.273Z,8.77
2022-10-17T12:24:55.203Z,6.73
2022-10-17T12:27:33.469Z,12.97
2022-10-17T12:30:02.699Z,7.10
2022-10-17T12:32:47.027Z,5.23
2022-10-17T12:35:21.743Z,6.63
2022-10-17T12:38:16.215Z,4.63
2022-10-17T12:40:58.157Z,5.43
2022-10-17T12:43:55.764Z,6.73
2022-10-17T12:46:46.765Z,5.00
2022-10-17T12:49:33.094Z,7.23
2022-10-17T12:52:15.744Z,4.10
2022-10-17T12:54:53.543Z,4.83
2022-10-17T12:57:32.125Z,4.00
2022-10-17T12:59:59.949Z,4.63
2022-10-17T13:02:30.703Z,5.40
2022-10-17T13:05:00.809Z,5.80
2022-10-17T13:07:29.632Z,6.60
2022-10-17T13:09:57.385Z,5.90
2022-10-17T13:12:27.133Z,4.50
2022-10-17T13:14:56.456Z,5.37
2022-10-17T13:17:25.353Z,4.90
2022-10-17T13:19:53.208Z,5.17
2022-10-17T13:22:22.391Z,5.43
2022-10-17T13:24:50.831Z,6.27
2022-10-17T13:27:28.687Z,5.53
2022-10-17T13:29:58.133Z,6.17
2022-10-17T13:32:26.360Z,5.10
2022-10-17T13:35:07.469Z,5.30
2022-10-17T13:37:35.478Z,5.67
2022-10-17T13:40:17.445Z,5.70
2022-10-17T13:42:51.322Z,4.90
2022-10-17T13:45:21.905Z,5.40
2022-10-17T13:47:49.469Z,5.97
2022-10-17T13:50:43.488Z,5.47
2022-10-17T13:53:19.464Z,5.20
2022-10-17T13:56:15.761Z,5.40
2022-10-17T13:58:46.776Z,5.53
2022-10-17T14:01:16.234Z,5.10
2022-10-17T14:03:48.685Z,5.00
2022-10-17T14:06:19.632Z,5.73
2022-10-17T14:08:49.520Z,5.73
2022-10-17T14:11:21.845Z,5.83
2022-10-17T14:13:49.696Z,5.00
2022-10-17T14:16:18.885Z,4.57
2022-10-17T14:18:49.193Z,5.07
2022-10-17T14:21:37.236Z,7.80
2022-10-17T14:24:14.675Z,4.77
2022-10-17T14:26:48.497Z,7.33
2022-10-17T14:29:21.956Z,5.00
2022-10-17T14:31:53.488Z,4.03
2022-10-17T14:34:22.815Z,3.53
2022-10-17T14:36:52.252Z,4.10
2022-10-17T14:39:20.671Z,3.47
2022-10-17T14:41:48.879Z,4.13
2022-10-17T14:44:21.558Z,2.80
2022-10-17T14:46:51.609Z,2.90
2022-10-17T14:49:24.849Z,2.93
2022-10-17T14:52:15.186Z,3.00
2022-10-17T14:54:44.280Z,7.47
2022-10-17T14:57:16.120Z,3.17
2022-10-17T14:59:53.705Z,4.80
2022-10-17T15:02:22.092Z,3.67
2022-10-17T15:04:50.995Z,3.10
2022-10-17T15:07:18.870Z,3.23
2022-10-17T15:09:48.157Z,3.20
2022-10-17T15:12:16.790Z,3.00
2022-10-17T15:14:44.493Z,3.30
2022-10-17T15:17:16.168Z,3.00
2022-10-17T15:19:43.718Z,3.07
2022-10-17T15:22:12.851Z,2.50
2022-10-17T15:24:40.466Z,3.27
2022-10-17T15:27:13.803Z,2.87
2022-10-17T15:29:41.396Z,3.50
2022-10-17T15:32:09.653Z,3.63
2022-10-17T15:34:37.247Z,3.50
2022-10-17T15:37:05.396Z,3.13
2022-10-17T15:39:34.349Z,3.28
2022-10-17T15:42:02.031Z,4.80
2022-10-17T15:44:29.904Z,4.00
2022-10-17T15:46:57.986Z,3.90
2022-10-17T15:49:25.572Z,3.50
2022-10-17T15:51:55.405Z,3.40
2022-10-17T15:54:23.092Z,3.57
2022-10-17T15:56:53.996Z,5.87
2022-10-17T15:59:23.196Z,3.70
2022-10-17T16:01:50.916Z,3.60
2022-10-17T16:04:18.869Z,3.17
2022-10-17T16:06:46.441Z,3.20
2022-10-17T16:09:14.004Z,3.33
2022-10-17T16:11:42.628Z,4.53
2022-10-17T16:14:12.957Z,3.43
2022-10-17T16:16:40.610Z,3.70
2022-10-17T16:19:08.180Z,4.30
2022-10-17T16:21:36.883Z,5.00
2022-10-17T16:24:04.874Z,3.20
2022-10-17T16:26:32.826Z,3.97
2022-10-17T16:29:02.769Z,3.80
2022-10-17T16:31:32.517Z,3.87
2022-10-17T16:34:00.912Z,6.22
2022-10-17T16:36:28.482Z,3.60
2022-10-17T16:38:56.154Z,3.63
2022-10-17T16:41:24.381Z,4.33
2022-10-17T16:43:52.569Z,3.63
2022-10-17T16:46:20.948Z,6.10
2022-10-17T16:48:50.189Z,4.73
2022-10-17T16:51:18.993Z,5.60
2022-10-17T16:53:46.880Z,4.77
2022-10-17T16:56:15.396Z,4.83
2022-10-17T16:58:43.396Z,6.17
2022-10-17T17:01:12.950Z,4.40
2022-10-17T17:03:41.417Z,6.90
2022-10-17T17:06:12.578Z,5.30
2022-10-17T17:08:40.147Z,5.73
2022-10-17T17:11:08.183Z,7.00
2022-10-17T17:13:35.773Z,8.67
2022-10-17T17:16:03.869Z,7.00
2022-10-17T17:18:31.620Z,6.73
2022-10-17T17:20:59.684Z,6.17
2022-10-17T17:23:28.612Z,6.30
2022-10-17T17:25:59.885Z,5.93
2022-10-17T17:28:28.000Z,6.00
2022-10-17T17:30:56.085Z,4.97
2022-10-17T17:33:23.908Z,4.80
2022-10-17T17:35:55.273Z,4.20
2022-10-17T17:38:22.898Z,4.83
2022-10-17T17:40:51.851Z,5.20
2022-10-17T17:43:19.646Z,5.60
2022-10-17T17:45:47.501Z,5.93
2022-10-17T17:48:15.385Z,5.43
2022-10-17T17:50:43.505Z,5.77
2022-10-17T17:53:12.613Z,5.70
2022-10-17T17:55:40.164Z,4.97
2022-10-17T17:58:09.276Z,5.67
2022-10-17T18:00:37.270Z,5.27
2022-10-17T18:03:04.861Z,5.20
2022-10-17T18:05:32.405Z,5.03
2022-10-17T18:07:59.972Z,5.53
2022-10-17T18:10:28.979Z,4.60
2022-10-17T18:12:56.569Z,5.03
2022-10-17T18:15:25.458Z,4.93
2022-10-17T18:17:53.019Z,5.13
2022-10-17T18:20:20.555Z,6.10
2022-10-17T18:22:48.098Z,6.53
2022-10-17T18:25:15.822Z,6.80
2022-10-17T18:27:43.385Z,5.90
2022-10-17T18:30:11.376Z,6.03
2022-10-17T18:32:40.604Z,6.47
2022-10-17T18:35:08.358Z,5.90
2022-10-17T18:37:35.953Z,5.83
2022-10-17T18:40:03.547Z,5.83
2022-10-17T18:42:31.363Z,11.27
2022-10-17T18:44:59.235Z,5.67
2022-10-17T18:47:26.835Z,6.50
2022-10-17T18:49:55.782Z,5.40
2022-10-17T18:52:24.522Z,5.93
2022-10-17T18:54:52.110Z,7.03
2022-10-17T18:57:21.500Z,11.63
2022-10-17T18:59:51.489Z,7.63
2022-10-17T19:02:19.058Z,5.37
2022-10-17T19:04:46.665Z,5.37
2022-10-17T19:07:16.972Z,5.63
2022-10-17T19:09:44.507Z,5.70
2022-10-17T19:12:12.075Z,5.53
2022-10-17T19:14:39.645Z,5.83
2022-10-17T19:17:07.212Z,6.27
2022-10-17T19:19:35.754Z,5.50
2022-10-17T19:22:04.097Z,8.20
2022-10-17T19:24:33.054Z,5.30
2022-10-17T19:27:02.517Z,6.27
2022-10-17T19:29:31.858Z,6.37
2022-10-17T19:31:59.653Z,5.70
2022-10-17T19:34:28.388Z,5.87
2022-10-17T19:36:56.651Z,5.37
2022-10-17T19:39:25.058Z,5.50
2022-10-17T19:41:54.010Z,6.33
2022-10-17T19:44:21.557Z,6.53
2022-10-17T19:46:49.253Z,6.83
2022-10-17T19:49:17.235Z,6.33
2022-10-17T19:51:44.785Z,9.20
2022-10-17T19:54:12.540Z,5.77
2022-10-17T19:56:42.980Z,12.87
2022-10-17T19:59:12.856Z,8.00
2022-10-17T20:01:40.854Z,7.07
2022-10-17T20:04:08.705Z,9.20
2022-10-17T20:06:36.301Z,7.00
2022-10-17T20:09:03.863Z,6.40
2022-10-17T20:11:31.809Z,7.37
2022-10-17T20:14:00.417Z,6.87
2022-10-17T20:16:31.275Z,6.63
2022-10-17T20:19:02.662Z,6.60
2022-10-17T20:21:32.342Z,7.00
2022-10-17T20:24:00.145Z,6.73
2022-10-17T20:26:43.873Z,6.57
2022-10-17T20:29:13.677Z,6.80
2022-10-17T20:31:43.419Z,6.37
2022-10-17T20:34:12.385Z,7.33
2022-10-17T20:36:40.073Z,6.43
2022-10-17T20:39:08.306Z,6.53
2022-10-17T20:41:36.054Z,6.70
2022-10-17T20:44:04.009Z,6.13
2022-10-17T20:46:44.792Z,10.23
2022-10-17T20:49:18.327Z,6.30
2022-10-17T20:51:46.025Z,13.77
2022-10-17T20:54:13.781Z,6.80
2022-10-17T20:56:41.315Z,8.43
2022-10-17T20:59:12.102Z,6.90
2022-10-17T21:01:39.805Z,6.80
2022-10-17T21:04:33.288Z,7.70
2022-10-17T21:06:56.404Z,8.17
2022-10-17T21:09:23.928Z,7.33
2022-10-17T21:11:54.933Z,7.63
2022-10-17T21:14:22.892Z,6.97
2022-10-17T21:16:51.987Z,7.30
2022-10-17T21:19:19.616Z,6.37
2022-10-17T21:21:47.537Z,6.97
2022-10-17T21:24:18.056Z,7.13
2022-10-17T21:26:46.562Z,7.03
2022-10-17T21:29:14.460Z,7.40
2022-10-17T21:31:43.419Z,7.63
2022-10-17T21:34:12.235Z,7.37
2022-10-17T21:36:40.015Z,6.70
2022-10-17T21:41:41.791Z,7.67
2022-10-17T21:44:12.458Z,7.27
2022-10-17T21:46:40.024Z,6.60
2022-10-17T21:49:07.685Z,6.77
2022-10-17T21:51:35.244Z,7.20
2022-10-17T21:54:05.659Z,6.57
2022-10-17T21:56:34.701Z,6.30
2022-10-17T21:59:04.228Z,6.37
2022-10-17T22:01:32.733Z,7.13
2022-10-17T22:04:01.032Z,6.17
2022-10-17T22:06:44.761Z,6.83
2022-10-17T22:09:14.138Z,8.23
2022-10-17T22:11:42.113Z,6.23
2022-10-17T22:14:13.365Z,10.90
2022-10-17T22:16:41.295Z,7.83
2022-10-17T22:19:09.388Z,7.50
2022-10-17T22:21:37.673Z,7.80
2022-10-17T22:24:06.862Z,8.20
2022-10-17T22:26:35.542Z,8.47
2022-10-17T22:29:04.251Z,7.40
2022-10-17T22:31:33.713Z,7.80
2022-10-17T22:34:01.662Z,7.90
2022-10-17T22:36:29.474Z,7.33
2022-10-17T22:38:57.041Z,7.87
2022-10-17T22:41:24.757Z,7.50
2022-10-17T22:43:52.321Z,7.67
2022-10-17T22:46:19.913Z,8.03
2022-10-17T22:48:48.853Z,9.73
2022-10-17T22:51:16.429Z,8.33
2022-10-17T22:53:44.042Z,8.33
2022-10-17T22:56:12.466Z,8.20
2022-10-17T22:58:40.039Z,7.50
2022-10-17T23:01:08.429Z,8.10
2022-10-17T23:03:36.473Z,6.97
2022-10-17T23:06:05.444Z,6.80
2022-10-17T23:08:33.053Z,7.20
2022-10-17T23:11:00.607Z,7.63
2022-10-17T23:13:28.196Z,7.73
2022-10-17T23:15:56.384Z,9.70
2022-10-17T23:18:25.113Z,16.67
2022-10-17T23:20:52.820Z,9.87
2022-10-17T23:23:21.809Z,8.27
2022-10-17T23:25:49.717Z,9.53
2022-10-17T23:28:17.600Z,9.57
2022-10-17T23:30:45.485Z,8.07
2022-10-17T23:33:13.681Z,6.40
2022-10-17T23:35:41.577Z,6.63
2022-10-17T23:38:09.727Z,5.83
2022-10-17T23:40:38.718Z,6.20
2022-10-17T23:43:06.473Z,6.47
2022-10-17T23:45:36.800Z,6.93
2022-10-17T23:48:04.814Z,6.73
2022-10-17T23:50:32.352Z,6.77
2022-10-17T23:52:59.913Z,6.97
2022-10-17T23:55:27.548Z,7.67
2022-10-17T23:57:56.501Z,6.43
